Time;durP1;ratioP1;P1;durP2;ratioP2;P2;SDS_P1;SDS_P2;PMS_P1;PMS_P2;Temp;Humidity;BMP_temperature;BMP_pressure;BME280_temperature;BME280_humidity;BME280_pressure;Samples;Min_cycle;Max_cycle;Signal;HPM_P1;HPM_P2
2022/08/08 00:01:16;;;;;;;3.20;2.90;;;14.00;93.90;;;;;;5006149;28;20482;-52
2022/08/08 00:03:50;;;;;;;3.87;2.93;;;14.00;80.30;;;;;;5007538;28;20925;-52
2022/08/08 00:06:28;;;;;;;2.30;2.10;;;14.00;92.00;;;;;;5011154;28;20502;-52
2022/08/08 00:09:04;;;;;;;3.20;3.00;;;14.00;91.90;;;;;;5010146;28;20897;-52
2022/08/08 00:11:40;;;;;;;2.70;2.50;;;14.00;93.30;;;;;;5008836;28;20463;-52
2022/08/08 00:14:13;;;;;;;3.10;3.00;;;14.10;90.70;;;;;;5010825;28;20545;-52
2022/08/08 00:16:45;;;;;;;2.77;2.50;;;14.00;92.50;;;;;;5011114;28;20487;-51
2022/08/08 00:19:20;;;;;;;2.80;2.60;;;14.10;92.40;;;;;;5009532;28;21203;-52
2022/08/08 00:21:51;;;;;;;3.00;2.77;;;14.00;91.70;;;;;;5010221;28;20490;-52
2022/08/08 00:24:24;;;;;;;10.60;2.80;;;14.00;92.40;;;;;;5011534;28;20499;-53
2022/08/08 00:26:55;;;;;;;3.17;2.90;;;14.00;90.50;;;;;;5010578;28;20507;-53
2022/08/08 00:29:27;;;;;;;3.97;2.70;;;14.00;91.90;;;;;;5009876;28;20562;-52
2022/08/08 00:31:58;;;;;;;2.50;2.40;;;13.90;80.20;;;;;;5008997;28;20460;-51
2022/08/08 00:35:15;;;;;;;5.90;2.87;;;13.90;88.20;;;;;;5008258;28;20492;-51
2022/08/08 00:38:00;;;;;;;2.87;2.67;;;13.80;87.00;;;;;;5010846;28;20903;-53
2022/08/08 00:40:41;;;;;;;2.37;2.17;;;13.80;85.70;;;;;;5006152;28;20490;-51
2022/08/08 00:43:36;;;;;;;2.80;2.67;;;13.70;83.20;;;;;;5007601;28;20510;-52
2022/08/08 00:46:36;;;;;;;2.57;2.47;;;13.60;80.10;;;;;;5010031;28;20941;-51
2022/08/08 00:49:36;;;;;;;3.10;2.90;;;13.60;79.50;;;;;;4982807;28;20534;-50
2022/08/08 00:52:16;;;;;;;2.97;2.77;;;13.60;75.60;;;;;;5008206;28;20946;-52
2022/08/08 00:55:10;;;;;;;3.30;2.43;;;13.50;74.80;;;;;;5007587;28;20491;-51
2022/08/08 00:58:15;;;;;;;3.00;2.80;;;13.50;73.00;;;;;;5006192;28;20734;-53
2022/08/08 01:00:51;;;;;;;2.73;2.53;;;13.50;72.30;;;;;;5007823;28;20904;-52
2022/08/08 01:03:52;;;;;;;4.30;2.93;;;13.40;70.30;;;;;;5006903;28;20946;-52
2022/08/08 01:06:45;;;;;;;2.97;2.77;;;13.40;68.60;;;;;;5010469;28;20479;-53
2022/08/08 01:09:49;;;;;;;2.63;2.43;;;13.30;67.50;;;;;;4992309;28;20491;-51
2022/08/08 01:12:50;;;;;;;2.20;2.07;;;13.30;63.70;;;;;;5006147;28;20488;-52
2022/08/08 01:15:50;;;;;;;3.27;2.97;;;13.30;62.50;;;;;;4999642;28;20487;-52
2022/08/08 01:18:55;;;;;;;3.27;2.87;;;13.20;59.20;;;;;;5005316;28;20507;-53
2022/08/08 01:21:50;;;;;;;3.10;2.90;;;13.20;57.80;;;;;;5009002;28;21035;-51
2022/08/08 01:24:47;;;;;;;7.37;3.20;;;13.10;56.40;;;;;;5007009;28;20527;-52
2022/08/08 01:27:52;;;;;;;3.27;2.97;;;13.10;52.70;;;;;;5012378;28;20545;-53
2022/08/08 01:30:54;;;;;;;2.97;2.77;;;13.10;51.20;;;;;;5006052;28;20463;-51
2022/08/08 01:33:52;;;;;;;3.40;3.10;;;13.10;53.70;;;;;;5001311;28;20494;-52
2022/08/08 01:37:08;;;;;;;2.63;2.43;;;13.10;49.90;;;;;;5009098;28;20486;-52
2022/08/08 01:39:53;;;;;;;2.87;2.67;;;13.10;46.30;;;;;;5006077;28;20479;-52
2022/08/08 01:42:30;;;;;;;4.20;3.37;;;13.10;47.80;;;;;;5005131;28;20510;-52
2022/08/08 01:45:07;;;;;;;3.10;2.93;;;13.10;45.50;;;;;;5008508;28;21031;-51
2022/08/08 01:47:50;;;;;;;2.90;2.70;;;13.10;43.30;;;;;;5006662;28;20590;-53
2022/08/08 01:50:40;;;;;;;2.83;2.63;;;13.10;43.30;;;;;;5008055;28;20488;-51
2022/08/08 01:53:26;;;;;;;3.97;3.20;;;13.00;30.10;;;;;;5003601;28;20514;-53
2022/08/08 01:56:34;;;;;;;4.10;2.53;;;13.10;37.00;;;;;;5009395;28;20537;-52
2022/08/08 01:59:16;;;;;;;4.23;3.10;;;13.10;40.40;;;;;;5003681;28;20622;-52
2022/08/08 02:01:58;;;;;;;6.50;2.90;;;13.10;35.30;;;;;;5008411;28;20492;-52
2022/08/08 02:04:34;;;;;;;3.00;2.80;;;13.10;37.50;;;;;;5007930;28;20463;-52
2022/08/08 02:07:07;;;;;;;3.17;2.87;;;13.10;29.60;;;;;;5001423;28;21258;-52
2022/08/08 02:09:46;;;;;;;3.07;2.87;;;13.10;35.80;;;;;;5009021;28;20574;-51
2022/08/08 02:12:18;;;;;;;3.27;3.00;;;13.00;27.50;;;;;;5009916;28;20464;-52
2022/08/08 02:14:52;;;;;;;5.43;3.47;;;13.10;30.00;;;;;;5008045;28;21003;-51
2022/08/08 02:17:24;;;;;;;7.80;2.70;;;13.10;33.30;;;;;;5008119;28;20462;-51
2022/08/08 02:19:56;;;;;;;3.50;3.20;;;13.10;32.80;;;;;;5009344;28;20889;-51
2022/08/08 02:22:31;;;;;;;3.00;2.80;;;13.10;33.20;;;;;;5005924;28;20523;-52
2022/08/08 02:25:07;;;;;;;2.97;2.70;;;13.10;31.60;;;;;;5008032;28;20530;-52
2022/08/08 02:27:40;;;;;;;3.10;3.00;;;13.10;29.50;;;;;;5009890;28;20533;-51
2022/08/08 02:30:09;;;;;;;2.80;2.70;;;13.10;29.60;;;;;;5007291;28;20486;-52
2022/08/08 02:33:02;;;;;;;3.80;2.80;;;13.00;30.80;;;;;;5008948;28;20512;-53
2022/08/08 02:35:45;;;;;;;2.60;2.50;;;13.00;30.10;;;;;;5008133;28;20464;-52
2022/08/08 02:38:27;;;;;;;3.30;3.10;;;12.90;27.90;;;;;;5003799;28;20487;-52
2022/08/08 02:41:09;;;;;;;3.53;3.20;;;12.90;23.30;;;;;;5009896;28;20495;-53
2022/08/08 02:44:06;;;;;;;3.70;3.40;;;12.80;23.90;;;;;;5008560;28;20977;-51
2022/08/08 02:46:59;;;;;;;3.33;3.13;;;12.70;22.90;;;;;;5007682;28;20558;-52
2022/08/08 02:50:05;;;;;;;3.33;3.13;;;12.70;75.80;;;;;;5008960;28;20511;-52
2022/08/08 02:52:59;;;;;;;3.90;3.40;;;12.60;80.70;;;;;;4988431;28;20495;-52
2022/08/08 02:56:22;;;;;;;3.10;2.83;;;12.60;99.90;;;;;;5004370;28;20467;-52
2022/08/08 02:59:43;;;;;;;3.23;2.93;;;12.50;99.90;;;;;;5008152;28;20519;-52
2022/08/08 03:02:58;;;;;;;3.00;2.80;;;12.50;99.90;;;;;;4942502;28;20454;-52
2022/08/08 03:06:01;;;;;;;3.47;3.27;;;12.40;99.90;;;;;;5009145;28;20522;-52
2022/08/08 03:09:24;;;;;;;2.60;2.50;;;12.30;99.90;;;;;;4999089;28;20992;-52
2022/08/08 03:12:35;;;;;;;6.03;3.87;;;12.30;99.90;;;;;;5011152;28;20981;-51
2022/08/08 03:15:20;;;;;;;6.53;2.50;;;12.20;99.90;;;;;;4998374;28;20564;-53
2022/08/08 03:17:52;;;;;;;4.17;3.70;;;12.20;99.90;;;;;;5004083;28;20562;-54
2022/08/08 03:20:19;;;;;;;2.80;2.70;;;12.20;99.90;;;;;;5007541;28;20506;-52
2022/08/08 03:22:48;;;;;;;5.30;3.70;;;12.00;99.90;;;;;;5008552;28;20491;-52
2022/08/08 03:25:18;;;;;;;3.43;3.13;;;11.90;99.90;;;;;;5013141;28;20518;-52
2022/08/08 03:27:50;;;;;;;3.80;3.43;;;11.80;99.90;;;;;;5012649;28;20902;-53
2022/08/08 03:30:19;;;;;;;5.07;3.50;;;11.90;99.90;;;;;;5011297;28;20459;-53
2022/08/08 03:35:31;;;;;;;3.40;3.13;;;11.90;99.90;;;;;;5011749;28;20463;-51
2022/08/08 03:38:01;;;;;;;3.13;2.97;;;11.90;99.90;;;;;;5012026;28;20507;-53
2022/08/08 03:40:28;;;;;;;3.00;2.80;;;11.90;99.90;;;;;;5007837;28;20467;-53
2022/08/08 03:42:54;;;;;;;3.40;3.10;;;11.90;99.90;;;;;;5009865;28;20488;-51
2022/08/08 03:45:23;;;;;;;3.27;3.10;;;11.80;99.90;;;;;;5008069;28;20463;-53
2022/08/08 03:47:58;;;;;;;4.03;3.37;;;11.80;99.90;;;;;;5025179;22;20791;-56
2022/08/08 03:50:25;;;;;;;3.87;3.47;;;11.70;99.90;;;;;;5054139;28;20461;-55
2022/08/08 03:52:53;;;;;;;3.80;3.27;;;11.70;99.90;;;;;;5047550;28;20498;-55
2022/08/08 03:55:22;;;;;;;3.20;3.00;;;11.70;99.90;;;;;;5045445;28;20485;-55
2022/08/08 03:57:51;;;;;;;3.57;3.33;;;11.70;99.90;;;;;;5047122;28;20897;-55
2022/08/08 04:00:19;;;;;;;6.33;3.50;;;11.70;99.90;;;;;;5034277;28;20507;-55
2022/08/08 04:02:54;;;;;;;3.00;2.80;;;11.60;99.90;;;;;;5029489;28;20478;-56
2022/08/08 04:05:21;;;;;;;4.17;3.70;;;11.60;99.90;;;;;;5020845;28;20467;-56
2022/08/08 04:07:48;;;;;;;4.30;3.23;;;11.70;99.90;;;;;;5031096;28;20525;-57
2022/08/08 04:10:14;;;;;;;3.20;3.00;;;11.60;99.90;;;;;;5033574;28;21135;-56
2022/08/08 04:12:42;;;;;;;3.77;3.43;;;11.70;99.90;;;;;;5028657;28;20528;-55
2022/08/08 04:15:10;;;;;;;3.87;3.57;;;11.60;99.90;;;;;;5032952;28;20544;-55
2022/08/08 04:17:36;;;;;;;12.43;4.20;;;11.60;99.90;;;;;;5029917;28;20548;-55
2022/08/08 04:20:04;;;;;;;4.90;3.60;;;11.70;99.90;;;;;;5028772;28;20528;-56
2022/08/08 04:22:30;;;;;;;3.77;3.47;;;11.70;99.90;;;;;;5026896;28;20601;-56
2022/08/08 04:24:57;;;;;;;4.30;3.90;;;11.70;99.90;;;;;;5031508;28;21259;-50
2022/08/08 04:27:24;;;;;;;3.40;3.13;;;11.70;99.90;;;;;;5035628;28;20577;-50
2022/08/08 04:29:52;;;;;;;3.37;3.17;;;11.70;99.90;;;;;;5030643;28;20564;-49
2022/08/08 04:32:19;;;;;;;3.60;3.30;;;11.80;99.90;;;;;;5027273;28;20495;-49
2022/08/08 04:34:45;;;;;;;3.27;3.07;;;11.80;99.90;;;;;;5027886;28;20542;-49
2022/08/08 04:37:12;;;;;;;3.43;3.20;;;11.80;99.90;;;;;;5028693;28;20491;-49
2022/08/08 04:39:39;;;;;;;3.30;3.10;;;11.80;99.90;;;;;;5034950;28;20518;-49
2022/08/08 04:42:06;;;;;;;3.55;3.25;;;11.90;99.90;;;;;;5030501;28;20488;-50
2022/08/08 04:44:32;;;;;;;4.17;3.80;;;11.90;99.90;;;;;;5031653;28;20237;-50
2022/08/08 04:47:00;;;;;;;3.40;3.20;;;11.90;99.90;;;;;;5028367;28;20586;-50
2022/08/08 04:49:27;;;;;;;3.57;3.37;;;12.00;99.90;;;;;;5031071;28;20531;-50
2022/08/08 04:51:53;;;;;;;6.03;4.00;;;12.00;99.90;;;;;;5028619;28;20459;-50
2022/08/08 04:54:20;;;;;;;3.70;3.40;;;12.10;99.90;;;;;;5030714;28;20899;-51
2022/08/08 04:56:47;;;;;;;3.30;3.00;;;12.20;99.90;;;;;;5032861;28;20543;-51
2022/08/08 04:59:13;;;;;;;3.67;3.37;;;12.30;99.90;;;;;;5031556;28;20520;-50
2022/08/08 05:01:40;;;;;;;4.43;3.40;;;12.30;99.90;;;;;;5031732;28;20467;-50
2022/08/08 05:04:08;;;;;;;3.23;3.10;;;12.40;99.90;;;;;;5031057;28;20885;-50
2022/08/08 05:06:34;;;;;;;3.80;3.57;;;12.50;99.90;;;;;;5029794;28;20494;-50
2022/08/08 05:09:01;;;;;;;4.07;3.67;;;12.60;99.90;;;;;;5033025;28;20532;-50
2022/08/08 05:11:28;;;;;;;4.70;3.20;;;12.70;99.90;;;;;;5029677;28;20509;-51
2022/08/08 05:13:54;;;;;;;4.10;3.77;;;12.70;99.90;;;;;;5032825;28;20931;-50
2022/08/08 05:16:21;;;;;;;12.93;3.97;;;12.80;99.90;;;;;;5033426;28;20462;-50
2022/08/08 05:18:48;;;;;;;5.23;4.60;;;13.00;99.90;;;;;;5028367;28;20523;-50
2022/08/08 05:21:16;;;;;;;5.60;4.30;;;13.10;99.90;;;;;;5030473;28;20501;-51
2022/08/08 05:23:42;;;;;;;4.20;3.50;;;13.20;99.90;;;;;;5027493;28;20490;-51
2022/08/08 05:26:09;;;;;;;5.83;3.57;;;13.30;99.90;;;;;;5027668;28;20640;-51
2022/08/08 05:28:35;;;;;;;3.60;3.30;;;13.40;99.90;;;;;;5032738;28;20490;-50
2022/08/08 05:31:02;;;;;;;3.93;3.50;;;13.50;99.90;;;;;;5027815;28;20490;-51
2022/08/08 05:33:29;;;;;;;3.20;3.00;;;13.60;99.90;;;;;;5028530;28;20502;-50
2022/08/08 05:36:01;;;;;;;3.90;3.60;;;13.70;99.90;;;;;;5033160;28;20879;-50
2022/08/08 05:38:30;;;;;;;3.77;3.43;;;13.80;99.90;;;;;;5031714;28;20575;-50
2022/08/08 05:40:58;;;;;;;5.53;3.77;;;14.00;99.90;;;;;;5024829;28;20487;-50
2022/08/08 05:43:26;;;;;;;4.40;3.70;;;14.10;99.90;;;;;;5034711;28;20496;-50
2022/08/08 05:45:56;;;;;;;4.50;3.77;;;14.20;99.90;;;;;;5034292;28;20501;-50
2022/08/08 05:48:23;;;;;;;4.63;3.90;;;14.30;99.90;;;;;;5028984;28;20497;-50
2022/08/08 05:50:49;;;;;;;6.00;4.60;;;14.50;99.90;;;;;;5030617;28;20458;-50
2022/08/08 05:53:16;;;;;;;12.17;4.17;;;14.60;22.20;;;;;;5032563;28;20817;-51
2022/08/08 05:55:45;;;;;;;15.43;4.70;;;14.70;24.80;;;;;;5031157;28;20508;-50
2022/08/08 05:58:13;;;;;;;4.03;3.73;;;14.80;32.80;;;;;;5026802;28;20560;-50
2022/08/08 06:00:43;;;;;;;8.03;3.80;;;15.00;36.30;;;;;;5031580;28;20463;-51
2022/08/08 06:03:15;;;;;;;8.93;3.97;;;15.00;38.70;;;;;;5030531;28;20475;-50
2022/08/08 06:05:48;;;;;;;6.33;4.37;;;15.20;40.90;;;;;;5030872;28;20447;-50
2022/08/08 06:08:15;;;;;;;4.00;3.70;;;15.20;44.30;;;;;;5029853;28;20518;-50
2022/08/08 06:10:43;;;;;;;5.70;3.90;;;15.30;50.00;;;;;;5030558;28;20498;-51
2022/08/08 06:13:11;;;;;;;5.33;4.20;;;15.50;54.50;;;;;;5030092;28;20470;-51
2022/08/08 06:15:37;;;;;;;6.57;5.50;;;15.60;59.60;;;;;;5033081;28;20956;-50
2022/08/08 06:18:04;;;;;;;4.23;3.10;;;15.70;61.30;;;;;;5029109;28;20494;-50
2022/08/08 06:20:31;;;;;;;4.00;3.13;;;15.90;68.10;;;;;;5035724;28;20485;-51
2022/08/08 06:22:58;;;;;;;5.20;2.80;;;16.00;72.20;;;;;;5025458;28;20843;-50
2022/08/08 06:25:25;;;;;;;4.20;3.50;;;16.00;76.80;;;;;;5034775;28;20913;-51
2022/08/08 06:27:55;;;;;;;5.10;3.33;;;16.20;79.40;;;;;;5031369;28;20482;-50
2022/08/08 06:30:23;;;;;;;5.60;2.97;;;16.30;84.80;;;;;;5037920;28;20467;-50
2022/08/08 06:32:52;;;;;;;7.77;3.87;;;16.40;89.50;;;;;;5028514;28;20463;-50
2022/08/08 06:35:19;;;;;;;4.87;3.70;;;16.60;94.20;;;;;;5032026;28;20459;-50
2022/08/08 06:37:51;;;;;;;9.90;3.47;;;16.70;98.80;;;;;;5031659;28;20524;-50
2022/08/08 06:40:18;;;;;;;6.93;3.23;;;16.80;99.90;;;;;;5027790;28;21003;-50
2022/08/08 06:42:52;;;;;;;6.43;2.77;;;16.90;99.90;;;;;;5016133;28;20507;-50
2022/08/08 06:45:20;;;;;;;4.50;3.33;;;17.10;99.90;;;;;;5026076;28;20470;-50
2022/08/08 06:47:48;;;;;;;3.40;3.10;;;17.20;99.90;;;;;;5034006;28;20498;-50
2022/08/08 06:50:15;;;;;;;3.40;3.03;;;17.30;99.90;;;;;;5035151;28;20490;-52
2022/08/08 06:52:42;;;;;;;8.93;3.50;;;17.50;99.90;;;;;;5028666;28;20493;-50
2022/08/08 06:55:10;;;;;;;3.83;3.17;;;17.60;99.90;;;;;;5034080;28;20512;-49
2022/08/08 06:57:37;;;;;;;4.87;3.03;;;17.70;99.90;;;;;;5034578;28;20438;-51
2022/08/08 07:00:06;;;;;;;3.27;3.07;;;17.90;99.90;;;;;;5028575;28;20868;-51
2022/08/08 07:02:34;;;;;;;3.53;3.20;;;18.00;99.90;;;;;;5026365;28;20458;-50
2022/08/08 07:05:06;;;;;;;3.77;3.40;;;18.20;99.90;;;;;;5027646;28;20513;-50
2022/08/08 07:07:47;;;;;;;3.10;2.80;;;18.30;99.90;;;;;;5029552;28;20486;-51
2022/08/08 07:10:19;;;;;;;5.10;3.30;;;18.50;99.90;;;;;;5025998;28;20462;-50
2022/08/08 07:12:51;;;;;;;3.53;3.23;;;18.70;99.90;;;;;;5031877;28;20458;-51
2022/08/08 07:15:22;;;;;;;3.03;2.90;;;18.80;99.90;;;;;;5031257;28;20490;-51
2022/08/08 07:17:50;;;;;;;3.80;3.40;;;18.80;99.90;;;;;;5025466;28;20510;-51
2022/08/08 07:20:21;;;;;;;3.23;2.97;;;18.90;99.90;;;;;;5025452;28;20491;-50
2022/08/08 07:22:59;;;;;;;3.80;3.50;;;19.10;99.90;;;;;;5023458;28;20873;-51
2022/08/08 07:25:26;;;;;;;12.03;3.60;;;19.20;99.90;;;;;;5024236;28;20493;-51
2022/08/08 07:27:59;;;;;;;3.67;3.37;;;19.30;99.90;;;;;;5031201;28;21203;-50
2022/08/08 07:30:26;;;;;;;3.33;3.03;;;19.30;99.90;;;;;;5024933;28;20467;-50
2022/08/08 07:32:53;;;;;;;6.07;3.00;;;19.30;99.90;;;;;;5028870;28;20501;-50
2022/08/08 07:35:21;;;;;;;3.43;3.10;;;19.40;99.90;;;;;;5024688;28;20478;-49
2022/08/08 07:37:50;;;;;;;7.23;3.40;;;19.50;99.90;;;;;;5026082;28;20483;-50
2022/08/08 07:40:17;;;;;;;3.27;2.83;;;19.60;99.90;;;;;;5031046;28;20458;-50
2022/08/08 07:42:45;;;;;;;5.03;2.70;;;19.70;99.90;;;;;;5028265;28;20459;-50
2022/08/08 07:45:12;;;;;;;3.90;2.70;;;19.80;99.90;;;;;;5031491;28;20458;-51
2022/08/08 07:47:39;;;;;;;3.00;2.80;;;19.90;99.90;;;;;;5028099;28;20486;-51
2022/08/08 07:50:06;;;;;;;5.33;3.40;;;20.00;99.90;;;;;;5026225;28;20837;-51
2022/08/08 07:52:34;;;;;;;3.07;2.70;;;20.20;99.90;;;;;;5031529;28;20462;-50
2022/08/08 07:55:04;;;;;;;3.00;2.63;;;20.30;99.90;;;;;;5029003;28;20491;-49
2022/08/08 07:57:40;;;;;;;2.40;2.20;;;20.40;99.90;;;;;;5027255;28;20502;-50
2022/08/08 08:00:09;;;;;;;12.87;2.50;;;20.50;99.90;;;;;;5027941;28;20482;-50
2022/08/08 08:02:40;;;;;;;4.70;2.23;;;20.70;99.90;;;;;;5025987;28;20542;-51
2022/08/08 08:05:17;;;;;;;2.57;2.37;;;20.80;99.90;;;;;;5024983;28;20491;-51
2022/08/08 08:07:48;;;;;;;2.60;2.40;;;21.00;99.90;;;;;;5027564;28;20478;-50
2022/08/08 08:10:17;;;;;;;6.77;2.13;;;21.00;99.90;;;;;;5030731;28;20487;-50
2022/08/08 08:12:52;;;;;;;2.83;2.60;;;21.10;99.90;;;;;;5023207;28;20456;-51
2022/08/08 08:15:24;;;;;;;2.97;2.70;;;21.10;99.90;;;;;;5029228;28;20450;-50
2022/08/08 08:17:52;;;;;;;3.37;2.50;;;21.30;99.90;;;;;;5032131;28;20466;-51
2022/08/08 08:20:21;;;;;;;2.70;2.50;;;21.40;99.90;;;;;;5030474;28;20486;-51
2022/08/08 08:22:49;;;;;;;5.43;2.80;;;21.40;99.90;;;;;;5034239;28;20490;-50
2022/08/08 08:25:16;;;;;;;6.23;2.13;;;21.50;99.90;;;;;;5028348;28;20493;-50
2022/08/08 08:27:42;;;;;;;4.60;2.80;;;21.60;99.90;;;;;;5033051;28;21028;-51
2022/08/08 08:30:10;;;;;;;2.30;2.20;;;21.70;99.90;;;;;;5028554;28;21194;-50
2022/08/08 08:32:36;;;;;;;3.17;2.80;;;21.80;99.90;;;;;;5029179;28;20490;-49
2022/08/08 08:35:04;;;;;;;2.67;2.47;;;22.00;99.90;;;;;;5029442;28;20553;-51
2022/08/08 08:37:30;;;;;;;6.17;2.60;;;22.10;99.90;;;;;;5030163;28;20876;-50
2022/08/08 08:39:58;;;;;;;2.57;2.33;;;22.30;99.90;;;;;;5030533;28;20477;-50
2022/08/08 08:42:25;;;;;;;3.77;3.20;;;22.30;99.90;;;;;;5028832;28;20490;-50
2022/08/08 08:44:53;;;;;;;2.33;2.13;;;22.50;99.90;;;;;;5027671;28;21855;-54
2022/08/08 08:47:21;;;;;;;2.80;2.57;;;22.50;99.90;;;;;;5032350;28;20450;-54
2022/08/08 08:49:47;;;;;;;3.33;1.90;;;22.60;99.90;;;;;;5023555;28;20523;-55
2022/08/08 08:52:17;;;;;;;2.37;2.27;;;22.70;99.90;;;;;;5027594;28;20486;-54
2022/08/08 08:54:45;;;;;;;2.43;2.23;;;22.80;99.90;;;;;;5026406;28;20468;-53
2022/08/08 08:57:14;;;;;;;2.23;2.13;;;22.90;99.90;;;;;;5020518;28;20496;-54
2022/08/08 08:59:43;;;;;;;5.03;2.13;;;23.00;99.90;;;;;;5036016;28;20481;-54
2022/08/08 09:02:18;;;;;;;3.40;2.87;;;23.00;99.90;;;;;;5027055;28;20510;-54
2022/08/08 09:04:47;;;;;;;4.20;2.40;;;23.20;99.90;;;;;;5027076;28;20486;-53
2022/08/08 09:07:18;;;;;;;6.57;2.87;;;23.30;99.90;;;;;;5023175;28;20491;-54
2022/08/08 09:09:48;;;;;;;2.57;2.37;;;23.60;99.90;;;;;;5024246;28;20522;-53
2022/08/08 09:12:19;;;;;;;3.00;2.60;;;24.20;99.90;;;;;;5016583;28;20482;-54
2022/08/08 09:14:46;;;;;;;4.97;2.40;;;24.50;99.90;;;;;;5028203;28;20469;-53
2022/08/08 09:17:13;;;;;;;3.90;2.50;;;24.50;99.90;;;;;;5025717;28;21036;-54
2022/08/08 09:19:40;;;;;;;3.23;2.53;;;24.50;99.90;;;;;;5024647;28;21218;-55
2022/08/08 09:22:08;;;;;;;4.90;2.63;;;24.50;99.90;;;;;;5017554;28;20483;-53
2022/08/08 09:24:35;;;;;;;2.40;2.20;;;24.50;99.90;;;;;;5021008;28;20495;-53
2022/08/08 09:27:07;;;;;;;2.70;2.57;;;24.40;99.90;;;;;;5027778;28;20519;-54
2022/08/08 09:29:51;;;;;;;5.87;2.20;;;24.20;99.90;;;;;;5032768;28;20505;-53
2022/08/08 09:32:25;;;;;;;6.13;2.20;;;24.10;99.90;;;;;;5026441;28;20461;-54
2022/08/08 09:34:55;;;;;;;2.43;2.23;;;24.10;99.90;;;;;;5024151;28;20483;-54
2022/08/08 09:37:28;;;;;;;3.97;2.77;;;24.00;99.90;;;;;;5018146;28;21014;-54
2022/08/08 09:40:02;;;;;;;2.50;2.40;;;23.70;99.90;;;;;;5022472;28;20932;-54
2022/08/08 09:42:33;;;;;;;5.00;2.23;;;23.50;99.90;;;;;;5027846;28;20524;-54
2022/08/08 09:45:06;;;;;;;5.13;2.80;;;23.70;99.90;;;;;;5025237;28;20490;-53
2022/08/08 09:47:35;;;;;;;3.57;2.20;;;24.00;99.90;;;;;;5028298;28;20483;-53
2022/08/08 09:50:05;;;;;;;2.80;2.60;;;24.30;99.90;;;;;;5064611;23;20595;-52
2022/08/08 09:52:34;;;;;;;2.60;2.07;;;24.20;99.90;;;;;;5057258;28;20540;-52
2022/08/08 09:55:01;;;;;;;3.50;2.20;;;23.80;99.90;;;;;;5052122;28;20477;-52
2022/08/08 09:57:34;;;;;;;4.37;2.23;;;23.80;99.90;;;;;;5061265;28;20830;-52
2022/08/08 10:00:02;;;;;;;1.70;1.60;;;23.90;99.90;;;;;;5061145;28;20473;-52
2022/08/08 10:02:36;;;;;;;2.53;2.23;;;24.10;99.90;;;;;;5057793;28;20477;-52
2022/08/08 10:05:05;;;;;;;2.23;2.03;;;24.40;99.90;;;;;;5052740;28;20479;-51
2022/08/08 10:07:32;;;;;;;2.43;2.20;;;24.60;99.90;;;;;;5058818;28;20503;-51
2022/08/08 10:09:58;;;;;;;2.50;2.10;;;24.80;99.90;;;;;;5063519;28;20489;-52
2022/08/08 10:12:32;;;;;;;2.40;2.13;;;24.70;99.90;;;;;;5067401;28;20539;-51
2022/08/08 10:15:00;;;;;;;2.33;2.20;;;24.50;99.90;;;;;;5066202;28;20458;-52
2022/08/08 10:17:27;;;;;;;2.40;2.20;;;24.40;99.90;;;;;;5060896;28;20461;-52
2022/08/08 10:19:59;;;;;;;2.40;2.00;;;24.20;99.90;;;;;;5062924;28;20485;-51
2022/08/08 10:22:27;;;;;;;5.13;2.20;;;23.90;99.90;;;;;;5061485;28;20486;-51
2022/08/08 10:24:59;;;;;;;2.83;2.63;;;23.80;99.90;;;;;;5072581;28;20441;-52
2022/08/08 10:27:28;;;;;;;2.70;2.50;;;23.50;99.90;;;;;;5058251;28;20854;-52
2022/08/08 10:29:59;;;;;;;5.33;2.23;;;23.60;99.90;;;;;;5063066;28;20844;-52
2022/08/08 10:32:36;;;;;;;2.20;2.00;;;24.10;99.90;;;;;;5076696;28;20448;-52
2022/08/08 10:35:07;;;;;;;2.30;2.20;;;24.30;99.90;;;;;;5059891;28;20544;-52
2022/08/08 10:37:35;;;;;;;2.80;2.60;;;24.80;99.90;;;;;;5054146;28;20551;-51
2022/08/08 10:40:13;;;;;;;3.00;2.30;;;25.10;99.90;;;;;;5050951;28;20550;-51
2022/08/08 10:42:41;;;;;;;5.87;2.20;;;25.40;99.90;;;;;;5067080;28;20489;-51
2022/08/08 10:45:10;;;;;;;2.10;2.00;;;25.60;99.90;;;;;;5060305;28;20497;-52
2022/08/08 10:47:37;;;;;;;2.07;1.97;;;25.70;99.90;;;;;;5053386;28;20460;-51
2022/08/08 10:50:08;;;;;;;3.90;2.27;;;25.80;99.90;;;;;;5063201;28;20990;-51
2022/08/08 10:52:37;;;;;;;6.20;2.43;;;25.90;99.90;;;;;;5054547;28;20514;-51
2022/08/08 10:55:06;;;;;;;1.93;1.77;;;25.80;99.90;;;;;;5055878;28;20448;-51
2022/08/08 10:57:37;;;;;;;1.90;1.80;;;25.60;99.90;;;;;;5057067;28;20466;-52
2022/08/08 11:00:05;;;;;;;2.17;2.03;;;25.30;99.90;;;;;;5057370;28;20586;-51
2022/08/08 11:02:33;;;;;;;2.43;2.23;;;25.00;99.90;;;;;;5062021;28;20458;-51
2022/08/08 11:05:01;;;;;;;2.40;2.13;;;24.70;99.90;;;;;;5056187;28;20457;-52
2022/08/08 11:07:31;;;;;;;2.87;2.43;;;24.50;99.90;;;;;;5059489;28;20488;-51
2022/08/08 11:10:01;;;;;;;2.53;2.37;;;24.40;99.90;;;;;;5057488;28;20575;-52
2022/08/08 11:12:28;;;;;;;3.60;2.23;;;24.50;99.90;;;;;;5055289;28;20519;-51
2022/08/08 11:14:56;;;;;;;7.97;2.10;;;24.90;99.90;;;;;;5067175;28;20518;-52
2022/08/08 11:17:25;;;;;;;1.83;1.73;;;25.00;99.90;;;;;;5066531;28;20475;-52
2022/08/08 11:19:53;;;;;;;2.13;1.73;;;25.00;99.90;;;;;;5057349;28;20578;-50
2022/08/08 11:22:29;;;;;;;1.80;1.70;;;24.90;99.90;;;;;;5071185;28;20437;-52
2022/08/08 11:25:00;;;;;;;2.37;2.17;;;24.70;99.90;;;;;;5063587;28;20484;-51
2022/08/08 11:27:33;;;;;;;2.23;2.13;;;24.90;99.90;;;;;;5054882;28;21049;-52
2022/08/08 11:30:01;;;;;;;2.07;1.90;;;25.20;99.90;;;;;;5058002;28;20508;-51
2022/08/08 11:32:30;;;;;;;2.40;2.20;;;25.40;99.90;;;;;;5054650;28;20979;-51
2022/08/08 11:35:04;;;;;;;5.30;2.10;;;25.70;99.90;;;;;;5055103;28;20457;-51
2022/08/08 11:37:33;;;;;;;2.53;2.30;;;25.70;99.90;;;;;;5057099;28;20458;-51
2022/08/08 11:40:02;;;;;;;1.70;1.60;;;25.50;99.90;;;;;;5063925;28;20503;-52
2022/08/08 11:42:31;;;;;;;1.93;1.83;;;25.50;99.90;;;;;;5059802;28;20457;-51
2022/08/08 11:44:58;;;;;;;1.93;1.83;;;25.60;99.90;;;;;;5056240;28;20506;-52
2022/08/08 11:47:26;;;;;;;2.47;2.17;;;25.80;99.90;;;;;;5053324;28;20973;-52
2022/08/08 11:49:55;;;;;;;2.83;2.53;;;25.90;99.90;;;;;;5058224;28;20585;-52
2022/08/08 11:52:23;;;;;;;3.00;2.70;;;25.90;99.90;;;;;;5068030;28;20488;-52
2022/08/08 11:54:50;;;;;;;1.97;1.90;;;26.00;99.90;;;;;;5061520;28;21034;-51
2022/08/08 11:57:22;;;;;;;3.80;2.23;;;26.20;99.90;;;;;;5064913;28;20457;-51
2022/08/08 11:59:56;;;;;;;2.33;2.20;;;26.20;99.90;;;;;;5072194;28;20526;-51
2022/08/08 12:03:15;;;;;;;2.47;2.37;;;26.00;99.90;;;;;;5061250;28;20484;-51
2022/08/08 12:05:42;;;;;;;3.23;2.43;;;25.80;99.90;;;;;;5054366;28;20531;-51
2022/08/08 12:08:09;;;;;;;4.70;2.20;;;25.60;99.90;;;;;;5064584;28;20815;-52
2022/08/08 12:10:46;;;;;;;4.27;2.17;;;25.50;99.90;;;;;;5059854;28;20495;-52
2022/08/08 12:13:15;;;;;;;2.43;2.30;;;25.30;99.90;;;;;;5052768;28;20895;-52
2022/08/08 12:15:47;;;;;;;5.43;2.27;;;25.30;99.90;;;;;;5066568;28;20541;-51
2022/08/08 12:18:15;;;;;;;4.63;4.20;;;25.50;99.90;;;;;;5053885;28;20485;-51
2022/08/08 12:20:41;;;;;;;3.30;2.20;;;25.70;99.90;;;;;;5067882;28;20493;-51
2022/08/08 12:23:09;;;;;;;2.27;2.17;;;26.10;99.90;;;;;;5068297;28;20488;-51
2022/08/08 12:25:36;;;;;;;2.67;2.47;;;26.00;99.90;;;;;;5062763;28;20556;-52
2022/08/08 12:28:11;;;;;;;2.30;2.13;;;26.00;99.90;;;;;;5061187;28;20460;-52
2022/08/08 12:30:40;;;;;;;10.43;1.90;;;26.10;99.90;;;;;;5061626;28;20578;-51
2022/08/08 12:33:16;;;;;;;4.07;3.63;;;26.10;99.90;;;;;;5066402;28;20468;-51
2022/08/08 12:35:43;;;;;;;4.00;2.10;;;26.10;99.90;;;;;;5060449;28;20460;-51
2022/08/08 12:38:12;;;;;;;5.83;5.10;;;26.00;99.90;;;;;;5066189;28;20596;-52
2022/08/08 12:40:42;;;;;;;3.23;2.20;;;25.80;99.90;;;;;;5058369;28;20450;-52
2022/08/08 12:43:09;;;;;;;4.00;3.50;;;25.80;99.90;;;;;;5061434;28;20457;-52
2022/08/08 12:45:37;;;;;;;6.60;4.47;;;25.90;99.90;;;;;;5055627;28;20516;-52
2022/08/08 12:48:07;;;;;;;2.43;2.30;;;25.90;99.90;;;;;;5066208;28;20548;-52
2022/08/08 12:50:41;;;;;;;1.70;1.60;;;25.70;99.90;;;;;;5056406;28;20855;-51
2022/08/08 12:53:19;;;;;;;2.30;2.10;;;25.50;99.90;;;;;;5050705;28;20492;-52
2022/08/08 12:55:57;;;;;;;2.73;2.40;;;25.50;99.90;;;;;;5061216;28;20888;-51
2022/08/08 12:58:25;;;;;;;1.90;1.77;;;25.40;99.90;;;;;;5062754;28;20516;-52
2022/08/08 13:00:52;;;;;;;2.70;2.50;;;25.50;99.90;;;;;;5057694;28;20460;-52
2022/08/08 13:03:33;;;;;;;3.33;3.03;;;25.80;99.90;;;;;;5059313;28;20528;-52
2022/08/08 13:06:04;;;;;;;3.57;2.33;;;26.10;99.90;;;;;;5058674;28;20493;-51
2022/08/08 13:08:40;;;;;;;3.37;3.07;;;26.20;99.90;;;;;;5059201;28;20574;-51
2022/08/08 13:11:17;;;;;;;2.30;2.10;;;26.40;99.90;;;;;;5054405;28;20604;-51
2022/08/08 13:13:50;;;;;;;4.57;2.30;;;26.70;99.90;;;;;;5055816;28;20501;-51
2022/08/08 13:16:18;;;;;;;3.60;3.30;;;26.90;99.90;;;;;;5062194;28;20521;-51
2022/08/08 13:18:46;;;;;;;5.63;3.53;;;26.90;99.90;;;;;;5051875;28;20556;-52
2022/08/08 13:21:14;;;;;;;3.60;3.30;;;27.00;99.90;;;;;;5059396;28;20455;-51